Flatwoods, LA (71427)

10:56 AM CDT on September 02, 2015 (GMT -0500)
Gardner | | Change Station
CLOSE
Current Station
Personal Weather Station
Location: Gardner, LA
Elevation: 184 ft
Nearby Weather Stations

Elev 184 ft 31.27 °N, 92.68 °W | Updated 3 seconds ago

Overcast
Overcast
87.1 °F
Feels Like 95 °F
N
2.2
Wind Variable Wind from South
Gusts 2.2 mph

Today
High -- | Low -- °F
--% Chance of Precip.
Yesterday
High -- | Low -- °F
Precip. -- in
6:47 AM 7:34 PM
Waning Gibbous, 79% visible
Pressure 30.06 in
Visibility 10.0 miles
Clouds Clear
Heat Index 95 °F
Dew Point 74 °F
Humidity 64%
Rainfall in
Snow Depth Not available.
UV 8 out of 12
Pollen 8.60 out of 12
Air Quality Not available.
Flu Activity Not available.
METAR KAEX 021553Z AUTO 36003KT 10SM CLR 30/22 A3006 RMK AO2 SLP180 T03000217
Pressure 30.06 in
Visibility 10.0 miles
Clouds Clear
Heat Index 95 °F
Dew Point 74 °F
Humidity 64%
Rainfall in
Snow Depth Not available.
UV 8 out of 12
Pollen 8.60 out of 12
Air Quality Not available.
Flu Activity Not available.
METAR KAEX 021553Z AUTO 36003KT 10SM CLR 30/22 A3006 RMK AO2 SLP180 T03000217

10-Day Weather Forecast

×

Almanac

Astronomy

Sep. 02, 2015 Rise Set
Actual Time
Civil Twilight
Nautical Twilight
Astronomical Twilight
Moon
Length of Visible Light
Length of Day
Tomorrow will be .
, % of the Moon is Illuminated

Today's Extremes

State Highs State Lows

Community

WunderPhotos

Upload Photos

1,851,774 photos uploaded!

WunderBlogs® & News

Nearby

Air Quality

  Air Quality AQ Index Pollutant
Not available.

Snow Depth

Station Depth Elevation

Earthquake Activity

City Distance Mag. Time & Date
Minimum magnitude displayed is 2.5.

Coastal Water Temperatures

Place Temperature

Stations

Nearby Weather Stations

Station Location Temp. Windchill Dew Point Humidity Wind Precip. Elev Updated Type